Urbe, Italy

8:13 PM CEST on September 16, 2014 (GMT +0200)
IRMROMA12 | Change Station
CLOSE
Current Station
Personal Weather Station
Location: Roma / Trieste-Salario, RM
Elevation: 148 ft
Nearby Weather Stations

Elev 148 ft 41.94 °N, 12.51 °E | Updated 13 minutes ago

Partly Cloudy
Partly Cloudy
76.6 °F
Feels Like 78 °F
N
1.8
Wind Variable Wind from ESE
Gusts 5.4 mph

Today
High -- | Low -- °F
--% Chance of Precip.
Yesterday
High -- | Low -- °F
Precip. -- in
6:50 AM 7:18 PM
Last Quarter, 43% visible
Pressure 29.92 in
Visibility 6.2 miles
Clouds Few 3000 ft
Heat Index 78 °F
Dew Point 60 °F
Humidity 57%
Rainfall 0.00 in
Snow Depth Not available.
UV 0 out of 12
Pollen Not available.
Air Quality Not available.
Flu Activity Not available.
METAR LIRG 161755Z 19003KT 9999 FEW030 23/17 Q1013

More Conditions Fewer Conditions

Pressure 29.92 in
Visibility 6.2 miles
Clouds Few 3000 ft
Heat Index 78 °F
Dew Point 60 °F
Humidity 57%
Rainfall 0.00 in
Snow Depth Not available.
UV 0 out of 12
Pollen Not available.
Air Quality Not available.
Flu Activity Not available.
METAR LIRG 161755Z 19003KT 9999 FEW030 23/17 Q1013

More Conditions Fewer Conditions

10-Day Weather Forecast

Almanac

Astronomy

Sep. 16, 2014 Rise Set
Actual Time 6:50 AM CEST 7:18 PM CEST
Civil Twilight 6:22 AM CEST 7:46 PM CEST
Nautical Twilight 5:49 AM CEST 8:19 PM CEST
Astronomical Twilight 5:15 AM CEST 8:52 PM CEST
Moon No Moon Rise 2:32 PM CEST
Length of Visible Light 13h 23m
Length of Day
12h 27m
Tomorrow will be 2m 47s shorter.
Last Quarter, 43% of the Moon is Illuminated
Today
Last Quarter
Sep 24
New
Oct 1
First Quarter
Oct 8
Full
Oct 15
Last Quarter

Today's Extremes

Country Highs Country Lows

Community

WunderPhotos

Upload Photos

1,753,850 photos uploaded!

Nearby

Snow Depth

Not available.

Earthquake Activity

City Distance Mag. Time & Date
No recent earthquake activity has been reported nearby.
Minimum magnitude displayed is 2.5.

Coastal Water Temperatures

Place Temperature
No Stations Reporting

Nearby Weather Stations